Kennells Beach, North Carolina
Current Conditions -  °F | °C
As of 4:54 AM on Sunday 25 Jan 2015 (Local Time) from KEWN Reporting Station
Clear Clear  
Wind Chill:   Ceiling: Unl
Heat Index:   Visibility: 10mi
Dew Point: -2°   Wind: 5mph
Humidity: 70%   Direction: 260°W
Pressure: 29.91"   Gusts: NA
Location:  35.1354°N, 76.8853°W
Report Text: KEWN 250954Z AUTO 26004KT 10SM CLR 03/M02 A2991 RMK AO2 SLP127 T00331017
Loading
Personal Weather Stations






























Interactive Weather Map New forecast layout! Learn more

10-Day Weather Forecast

Advertisements
Track Severe Weather on mobile